Time;durP1;ratioP1;P1;durP2;ratioP2;P2;SDS_P1;SDS_P2;PMS_P1;PMS_P2;Temp;Humidity;BMP_temperature;BMP_pressure;BME280_temperature;BME280_humidity;BME280_pressure;Samples;Min_cycle;Max_cycle;Signal;HPM_P1;HPM_P2
2023/02/11 00:02:26;;;;;;;38.63;26.77;;;1.60;99.90;;;;;;5033867;28;20190;-69
2023/02/11 00:04:52;;;;;;;36.73;25.10;;;1.70;99.90;;;;;;5032924;28;20194;-69
2023/02/11 00:07:17;;;;;;;37.33;24.40;;;1.70;99.90;;;;;;5033803;28;20428;-70
2023/02/11 00:09:43;;;;;;;38.20;26.43;;;1.70;99.90;;;;;;5033754;28;20248;-70
2023/02/11 00:12:08;;;;;;;39.13;26.37;;;1.70;99.90;;;;;;5033803;28;20177;-69
2023/02/11 00:14:34;;;;;;;42.17;27.53;;;1.60;99.90;;;;;;5033085;28;20597;-70
2023/02/11 00:17:00;;;;;;;39.07;27.53;;;1.50;99.90;;;;;;5031995;28;20194;-68
2023/02/11 00:19:25;;;;;;;37.57;25.80;;;1.50;99.90;;;;;;5031866;28;20261;-70
2023/02/11 00:21:51;;;;;;;35.53;25.20;;;1.50;99.90;;;;;;5033403;28;20174;-69
2023/02/11 00:24:16;;;;;;;36.70;26.83;;;1.50;99.90;;;;;;5033623;28;20249;-69
2023/02/11 00:26:42;;;;;;;39.33;25.30;;;1.60;99.90;;;;;;5033300;28;20228;-70
2023/02/11 00:29:08;;;;;;;39.70;25.80;;;1.60;99.90;;;;;;5033686;28;20175;-69
2023/02/11 00:31:34;;;;;;;40.33;27.57;;;1.60;99.90;;;;;;5032653;28;20638;-69
2023/02/11 00:33:59;;;;;;;38.63;26.07;;;1.60;99.90;;;;;;5031260;28;20421;-70
2023/02/11 00:36:27;;;;;;;36.20;25.10;;;1.70;99.90;;;;;;5033241;28;20199;-70
2023/02/11 00:38:54;;;;;;;39.00;26.90;;;1.70;99.90;;;;;;5032627;28;20297;-70
2023/02/11 00:41:20;;;;;;;37.50;25.37;;;1.60;99.90;;;;;;5032515;28;20490;-69
2023/02/11 00:43:46;;;;;;;38.50;25.23;;;1.60;99.90;;;;;;5032569;28;20465;-70
2023/02/11 00:46:12;;;;;;;40.40;25.70;;;1.50;99.90;;;;;;5032748;28;20457;-69
2023/02/11 00:48:38;;;;;;;36.00;24.77;;;1.50;99.90;;;;;;5032446;28;20175;-69
2023/02/11 00:51:04;;;;;;;36.20;26.93;;;1.50;99.90;;;;;;5031861;28;20431;-70
2023/02/11 00:53:30;;;;;;;34.33;23.87;;;1.50;99.90;;;;;;5032404;28;20502;-69
2023/02/11 00:55:56;;;;;;;37.93;25.53;;;1.70;99.90;;;;;;5032361;28;20474;-70
2023/02/11 00:58:22;;;;;;;36.33;24.07;;;1.60;99.90;;;;;;5032740;28;20410;-69
2023/02/11 01:00:48;;;;;;;40.87;25.57;;;1.60;99.90;;;;;;5032834;28;20174;-69
2023/02/11 01:03:13;;;;;;;36.47;25.00;;;1.70;99.90;;;;;;5031339;28;20679;-68
2023/02/11 01:05:39;;;;;;;35.57;25.40;;;1.60;99.90;;;;;;5031896;28;20469;-69
2023/02/11 01:08:04;;;;;;;40.80;27.20;;;1.50;99.90;;;;;;5032142;28;20228;-69
2023/02/11 01:10:30;;;;;;;40.50;27.17;;;1.40;99.90;;;;;;5032313;28;20175;-68
2023/02/11 01:12:56;;;;;;;42.77;26.30;;;1.30;99.90;;;;;;5032414;28;20253;-69
2023/02/11 01:15:22;;;;;;;41.00;26.73;;;1.30;99.90;;;;;;5032501;28;20472;-69
2023/02/11 01:17:47;;;;;;;40.77;28.23;;;1.30;99.90;;;;;;5032408;28;20178;-69
2023/02/11 01:20:18;;;;;;;41.70;26.60;;;1.30;99.90;;;;;;5030908;28;20696;-69
2023/02/11 01:22:43;;;;;;;39.13;24.67;;;1.20;99.90;;;;;;5032834;28;20656;-69
2023/02/11 01:25:12;;;;;;;42.73;28.27;;;1.10;99.90;;;;;;5032294;28;20456;-69
2023/02/11 01:27:38;;;;;;;37.77;25.40;;;1.10;99.90;;;;;;5033475;28;20170;-69
2023/02/11 01:30:06;;;;;;;39.33;26.93;;;1.10;99.90;;;;;;5033043;28;20420;-69
2023/02/11 01:32:32;;;;;;;38.63;25.47;;;1.10;99.90;;;;;;5032541;28;20256;-68
2023/02/11 01:34:58;;;;;;;37.23;24.13;;;1.30;99.90;;;;;;5031846;28;20598;-69
2023/02/11 01:37:24;;;;;;;39.70;25.17;;;1.40;99.90;;;;;;5032850;28;20828;-69
2023/02/11 01:39:49;;;;;;;40.67;26.40;;;1.40;99.90;;;;;;5032765;28;20186;-69
2023/02/11 01:42:17;;;;;;;41.07;26.37;;;1.20;99.90;;;;;;5030686;28;20627;-69
2023/02/11 01:44:43;;;;;;;37.70;26.27;;;1.20;99.90;;;;;;5035349;28;20192;-70
2023/02/11 01:47:09;;;;;;;35.93;25.10;;;1.20;99.90;;;;;;5035855;28;20439;-70
2023/02/11 01:49:48;;;;;;;37.97;25.53;;;1.30;99.90;;;;;;5035134;28;20778;-70
2023/02/11 01:52:22;;;;;;;41.60;26.93;;;1.40;99.90;;;;;;5035375;28;21015;-69
2023/02/11 01:57:41;;;;;;;37.17;26.23;;;1.30;99.90;;;;;;5016427;28;20416;-70
2023/02/11 02:00:10;;;;;;;36.43;25.53;;;1.30;99.90;;;;;;5016074;28;20416;-69
2023/02/11 02:02:39;;;;;;;33.90;23.97;;;1.30;99.90;;;;;;5016153;28;20406;-69
2023/02/11 02:05:34;;;;;;;39.43;25.33;;;1.30;99.90;;;;;;5015409;28;20465;-69
2023/02/11 02:08:12;;;;;;;37.17;24.90;;;1.30;99.90;;;;;;5014412;28;20863;-69
2023/02/11 02:10:43;;;;;;;38.00;26.60;;;1.40;99.90;;;;;;5016029;28;20425;-70
2023/02/11 02:13:09;;;;;;;43.57;28.47;;;1.40;99.90;;;;;;5015755;28;20394;-69
2023/02/11 02:15:53;;;;;;;36.23;24.17;;;1.30;99.90;;;;;;5015253;28;20437;-70
2023/02/11 02:18:41;;;;;;;35.90;24.23;;;1.20;99.90;;;;;;5016148;28;20421;-69
2023/02/11 02:21:18;;;;;;;30.67;22.60;;;1.10;99.90;;;;;;5035502;28;20770;-69
2023/02/11 02:24:21;;;;;;;36.70;25.77;;;1.30;99.90;;;;;;5035308;28;20397;-69
2023/02/11 02:27:02;;;;;;;37.17;23.73;;;1.30;99.90;;;;;;5035510;28;20810;-70
2023/02/11 02:29:53;;;;;;;29.50;22.50;;;1.40;99.90;;;;;;5035640;28;20389;-70
2023/02/11 02:32:43;;;;;;;34.07;21.80;;;1.40;99.90;;;;;;5035857;28;20404;-69
2023/02/11 02:35:30;;;;;;;38.60;23.67;;;1.30;99.90;;;;;;5034982;28;20536;-70
2023/02/11 02:38:10;;;;;;;38.90;24.90;;;1.30;99.90;;;;;;5035383;28;20397;-70
2023/02/11 02:40:56;;;;;;;36.13;23.33;;;1.20;99.90;;;;;;5035146;28;20445;-70
2023/02/11 02:43:24;;;;;;;34.70;23.30;;;1.30;99.90;;;;;;5034270;28;20458;-69
2023/02/11 02:45:50;;;;;;;35.17;23.20;;;1.40;99.90;;;;;;5035247;28;20455;-69
2023/02/11 02:48:24;;;;;;;36.30;24.00;;;1.40;99.90;;;;;;5034818;28;20434;-70
2023/02/11 02:50:56;;;;;;;38.17;25.40;;;1.50;99.90;;;;;;5034796;28;20217;-70
2023/02/11 02:53:53;;;;;;;29.80;21.70;;;1.60;99.90;;;;;;5035129;28;20383;-69
2023/02/11 02:56:44;;;;;;;36.97;23.97;;;1.50;99.90;;;;;;5034136;28;20448;-69
2023/02/11 02:59:48;;;;;;;36.13;24.20;;;1.30;99.90;;;;;;5034815;28;20409;-70
2023/02/11 03:02:41;;;;;;;38.07;24.37;;;1.20;99.90;;;;;;5034581;28;20511;-69
2023/02/11 03:05:20;;;;;;;36.07;24.90;;;1.30;99.90;;;;;;5034516;28;20449;-69
2023/02/11 03:08:01;;;;;;;36.67;24.30;;;1.40;99.90;;;;;;5034983;28;20382;-69
2023/02/11 03:10:34;;;;;;;37.27;25.73;;;1.50;99.90;;;;;;5035152;28;20382;-69
2023/02/11 03:13:01;;;;;;;36.70;24.13;;;1.50;99.90;;;;;;5035142;28;20393;-69
2023/02/11 03:15:30;;;;;;;44.60;25.67;;;1.60;99.90;;;;;;5034318;28;20796;-69
2023/02/11 03:17:59;;;;;;;36.97;24.77;;;1.70;99.90;;;;;;5033168;28;20504;-69
2023/02/11 03:20:26;;;;;;;35.17;24.03;;;1.60;99.90;;;;;;5034267;28;20420;-69
2023/02/11 03:22:57;;;;;;;34.10;23.80;;;1.60;99.90;;;;;;5031788;28;20451;-69
2023/02/11 03:25:31;;;;;;;32.60;23.00;;;1.60;99.90;;;;;;5034378;28;20451;-69
2023/02/11 03:28:11;;;;;;;35.43;22.30;;;1.60;99.90;;;;;;5033190;28;20779;-69
2023/02/11 03:30:56;;;;;;;33.80;24.20;;;1.50;99.90;;;;;;5034878;28;20401;-69
2023/02/11 03:33:34;;;;;;;34.83;20.90;;;1.50;99.90;;;;;;5034894;28;20394;-70
2023/02/11 03:36:05;;;;;;;33.87;21.60;;;1.50;99.90;;;;;;5035272;28;20440;-69
2023/02/11 03:38:40;;;;;;;35.57;22.53;;;1.50;99.90;;;;;;5034447;28;20421;-70
2023/02/11 03:41:08;;;;;;;29.53;21.20;;;1.40;99.90;;;;;;5034630;28;20400;-69
2023/02/11 03:43:43;;;;;;;31.20;20.07;;;1.50;99.90;;;;;;5034089;28;20406;-69
2023/02/11 03:46:11;;;;;;;35.77;23.93;;;1.50;99.90;;;;;;5033742;28;20464;-70
2023/02/11 03:48:43;;;;;;;27.33;20.30;;;1.60;99.90;;;;;;5033464;28;20415;-69
2023/02/11 03:51:11;;;;;;;31.40;22.17;;;1.60;99.90;;;;;;5034165;28;20408;-70
2023/02/11 03:53:39;;;;;;;33.53;20.83;;;1.60;99.90;;;;;;5032551;28;20424;-69
2023/02/11 03:56:09;;;;;;;30.90;19.43;;;1.60;99.90;;;;;;5033613;28;20543;-69
2023/02/11 03:58:35;;;;;;;35.30;21.27;;;1.50;99.90;;;;;;5033794;28;20467;-69
2023/02/11 04:01:01;;;;;;;32.60;20.37;;;1.60;99.90;;;;;;5033724;28;20414;-69
2023/02/11 04:03:27;;;;;;;28.03;19.00;;;1.60;99.90;;;;;;5034150;28;20168;-69
2023/02/11 04:05:53;;;;;;;28.63;20.20;;;1.60;99.90;;;;;;5033713;28;20776;-69
2023/02/11 04:08:19;;;;;;;27.00;18.93;;;1.60;99.90;;;;;;5033203;28;20782;-69
2023/02/11 04:10:45;;;;;;;27.43;18.13;;;1.60;99.90;;;;;;5033673;28;20449;-69
2023/02/11 04:13:11;;;;;;;26.07;17.90;;;1.70;99.90;;;;;;5034315;28;20410;-70
2023/02/11 04:15:36;;;;;;;27.67;19.27;;;1.80;99.90;;;;;;5033448;28;20198;-70
2023/02/11 04:18:02;;;;;;;26.83;19.07;;;1.90;99.90;;;;;;5033499;28;20552;-70
2023/02/11 04:20:28;;;;;;;24.77;17.00;;;2.10;99.90;;;;;;5033600;28;20261;-69
2023/02/11 04:22:53;;;;;;;27.20;18.40;;;2.10;99.90;;;;;;5032121;28;20459;-69
2023/02/11 04:25:19;;;;;;;29.03;20.30;;;2.10;99.90;;;;;;5033160;28;20493;-70
2023/02/11 04:27:45;;;;;;;28.17;19.70;;;2.00;99.90;;;;;;5033249;28;20186;-70
2023/02/11 04:30:11;;;;;;;26.90;18.70;;;2.10;99.90;;;;;;5033072;28;20261;-71
2023/02/11 04:32:36;;;;;;;26.03;19.00;;;2.20;99.90;;;;;;5032954;28;20233;-70
2023/02/11 04:35:02;;;;;;;23.57;17.63;;;2.20;99.90;;;;;;5033570;28;20881;-70
2023/02/11 04:37:28;;;;;;;25.60;16.27;;;2.20;99.90;;;;;;5032701;28;20254;-70
2023/02/11 04:39:54;;;;;;;24.27;17.10;;;2.30;99.90;;;;;;5032826;28;20951;-70
2023/02/11 04:42:20;;;;;;;22.70;16.73;;;2.40;99.90;;;;;;5032750;28;20654;-69
2023/02/11 04:44:45;;;;;;;23.70;16.67;;;2.50;99.90;;;;;;5031736;28;20265;-69
2023/02/11 04:47:14;;;;;;;24.73;17.40;;;2.60;99.90;;;;;;5031366;28;20433;-70
2023/02/11 04:49:40;;;;;;;27.20;17.30;;;2.70;99.90;;;;;;5033078;28;20191;-70
2023/02/11 04:52:06;;;;;;;25.20;18.30;;;2.70;99.90;;;;;;5032426;28;20500;-70
2023/02/11 04:54:32;;;;;;;24.00;16.60;;;2.70;99.90;;;;;;5033235;28;20413;-70
2023/02/11 04:56:57;;;;;;;27.50;18.87;;;2.70;99.90;;;;;;5032756;28;20446;-70
2023/02/11 04:59:23;;;;;;;27.93;19.33;;;2.80;99.90;;;;;;5032709;28;20201;-68
2023/02/11 05:01:48;;;;;;;21.77;17.43;;;2.70;99.90;;;;;;5033180;28;20164;-70
2023/02/11 05:04:14;;;;;;;25.30;18.03;;;2.70;99.90;;;;;;5032741;28;20167;-69
2023/02/11 05:06:40;;;;;;;25.47;17.70;;;2.80;99.90;;;;;;5032740;28;20748;-70
2023/02/11 05:09:06;;;;;;;25.33;18.77;;;2.90;99.90;;;;;;5032004;28;20410;-70
2023/02/11 05:11:32;;;;;;;24.57;18.17;;;3.10;99.90;;;;;;5032734;28;20221;-70
2023/02/11 05:13:58;;;;;;;29.97;19.33;;;3.10;99.90;;;;;;5033090;28;20485;-70
2023/02/11 05:16:23;;;;;;;28.40;18.50;;;3.20;99.90;;;;;;5032973;28;20832;-71
2023/02/11 05:18:49;;;;;;;24.03;17.60;;;3.20;99.90;;;;;;5032384;28;20194;-70
2023/02/11 05:21:16;;;;;;;20.63;16.37;;;3.30;99.90;;;;;;5032042;28;20178;-72
2023/02/11 05:23:43;;;;;;;25.10;18.50;;;3.10;99.90;;;;;;5030799;28;20642;-70
2023/02/11 05:26:09;;;;;;;19.80;15.43;;;3.00;99.90;;;;;;5032524;28;20457;-70
2023/02/11 05:28:35;;;;;;;24.60;18.20;;;3.00;99.90;;;;;;5031955;28;20425;-70
2023/02/11 05:31:01;;;;;;;22.30;17.10;;;3.10;99.90;;;;;;5032796;28;20466;-70
2023/02/11 05:33:27;;;;;;;24.03;17.90;;;3.10;99.90;;;;;;5032705;28;20190;-71
2023/02/11 05:36:00;;;;;;;24.27;19.33;;;3.20;99.90;;;;;;5033326;28;20993;-70
2023/02/11 05:38:26;;;;;;;29.93;21.03;;;3.20;99.90;;;;;;5033252;28;20857;-71
2023/02/11 05:40:52;;;;;;;29.03;20.57;;;3.00;99.90;;;;;;5031999;28;20410;-70
2023/02/11 05:43:17;;;;;;;22.83;18.27;;;3.10;99.90;;;;;;5032796;28;20747;-70
2023/02/11 05:45:43;;;;;;;24.40;18.60;;;3.20;99.90;;;;;;5032393;28;20249;-71
2023/02/11 05:48:08;;;;;;;23.23;18.10;;;3.40;99.90;;;;;;5032016;28;20167;-71
2023/02/11 05:50:34;;;;;;;27.63;18.60;;;3.50;99.90;;;;;;5032271;28;20167;-70
2023/02/11 05:53:00;;;;;;;21.97;17.50;;;3.50;99.90;;;;;;5032074;28;20700;-71
2023/02/11 05:55:25;;;;;;;27.63;19.40;;;3.50;99.90;;;;;;5032267;28;20287;-70
2023/02/11 05:57:51;;;;;;;22.30;18.20;;;3.50;99.90;;;;;;5068570;23;20234;-70
2023/02/11 06:00:17;;;;;;;26.47;18.90;;;3.50;99.90;;;;;;5053043;28;20167;-70
2023/02/11 06:02:42;;;;;;;28.30;21.37;;;3.50;99.90;;;;;;5051650;28;20255;-70
2023/02/11 06:05:08;;;;;;;25.53;18.63;;;3.50;99.90;;;;;;5052922;28;20536;-70
2023/02/11 06:07:34;;;;;;;21.90;17.70;;;3.50;99.90;;;;;;5066483;28;20181;-68
2023/02/11 06:10:00;;;;;;;26.93;19.30;;;3.60;99.90;;;;;;5071992;28;20415;-71
2023/02/11 06:12:25;;;;;;;21.83;18.33;;;3.60;99.90;;;;;;5071305;28;20166;-70
2023/02/11 06:14:51;;;;;;;22.47;17.93;;;3.70;99.90;;;;;;5073125;28;20190;-70
2023/02/11 06:17:17;;;;;;;27.30;18.30;;;3.70;99.90;;;;;;5073283;28;20420;-70
2023/02/11 06:19:43;;;;;;;25.23;18.80;;;3.70;99.90;;;;;;5073632;28;20495;-70
2023/02/11 06:22:08;;;;;;;26.67;19.17;;;3.70;99.90;;;;;;5067977;28;20667;-70
2023/02/11 06:24:34;;;;;;;27.83;19.63;;;3.70;99.90;;;;;;5054096;28;20173;-70
2023/02/11 06:27:00;;;;;;;23.33;18.90;;;3.70;99.90;;;;;;5053430;28;20201;-71
2023/02/11 06:29:25;;;;;;;25.03;20.17;;;3.70;99.90;;;;;;5054513;28;20175;-70
2023/02/11 06:31:51;;;;;;;24.00;19.03;;;3.60;99.90;;;;;;5056652;28;20170;-70
2023/02/11 06:34:16;;;;;;;24.70;19.63;;;3.60;99.90;;;;;;5056395;28;20626;-70
2023/02/11 06:36:42;;;;;;;27.57;19.87;;;3.60;99.90;;;;;;5057270;28;20243;-70
2023/02/11 06:39:10;;;;;;;24.17;19.30;;;3.70;99.90;;;;;;5056591;28;20603;-70
2023/02/11 06:41:36;;;;;;;28.73;20.27;;;3.80;99.90;;;;;;5058010;28;20417;-70
2023/02/11 06:44:02;;;;;;;26.00;20.40;;;3.80;99.90;;;;;;5057483;28;20416;-70
2023/02/11 06:46:28;;;;;;;26.30;20.63;;;3.80;99.90;;;;;;5057591;28;20255;-70
2023/02/11 06:48:53;;;;;;;28.23;20.70;;;3.90;99.90;;;;;;5057073;28;20405;-70
2023/02/11 06:51:19;;;;;;;27.10;18.87;;;3.90;99.90;;;;;;5054928;28;20612;-69
2023/02/11 06:53:45;;;;;;;23.47;19.23;;;3.90;99.90;;;;;;5055574;28;20166;-70
2023/02/11 06:56:17;;;;;;;28.40;21.80;;;3.90;99.90;;;;;;5054999;28;20657;-70
2023/02/11 06:58:42;;;;;;;25.87;20.70;;;3.90;99.90;;;;;;5053356;28;20431;-70
2023/02/11 07:01:11;;;;;;;26.90;22.13;;;3.90;99.90;;;;;;5055030;28;20480;-70
2023/02/11 07:03:38;;;;;;;26.70;19.77;;;3.90;99.90;;;;;;5055183;28;20167;-70
2023/02/11 07:06:06;;;;;;;28.67;19.80;;;4.00;99.90;;;;;;5054373;28;20947;-70
2023/02/11 07:08:32;;;;;;;26.83;21.43;;;4.10;99.90;;;;;;5053805;28;20416;-70
2023/02/11 07:10:58;;;;;;;24.83;18.83;;;4.00;99.90;;;;;;5054933;28;20458;-70
2023/02/11 07:13:23;;;;;;;25.80;19.23;;;4.00;99.90;;;;;;5061066;28;20765;-70
2023/02/11 07:15:49;;;;;;;24.13;19.10;;;4.00;99.90;;;;;;5073837;28;20763;-70
2023/02/11 07:18:15;;;;;;;29.97;21.70;;;4.00;99.90;;;;;;5065135;28;20618;-70
2023/02/11 07:20:40;;;;;;;23.40;18.83;;;4.00;99.90;;;;;;5053916;28;20261;-70
2023/02/11 07:23:06;;;;;;;28.67;20.80;;;4.10;99.90;;;;;;5054009;28;20514;-70
2023/02/11 07:25:32;;;;;;;25.53;19.40;;;4.20;99.90;;;;;;5054861;28;20261;-70
2023/02/11 07:27:57;;;;;;;24.90;18.57;;;4.30;99.90;;;;;;5055157;28;20187;-69
2023/02/11 07:30:23;;;;;;;25.20;20.10;;;4.30;99.90;;;;;;5056084;28;20256;-70
2023/02/11 07:32:48;;;;;;;26.23;20.70;;;4.30;99.90;;;;;;5053614;28;20190;-70
2023/02/11 07:35:14;;;;;;;26.70;20.03;;;4.30;99.90;;;;;;5055031;28;20195;-69
2023/02/11 07:37:40;;;;;;;30.13;21.67;;;4.00;99.90;;;;;;5054213;28;20237;-70
2023/02/11 07:40:06;;;;;;;31.50;23.50;;;3.90;99.90;;;;;;5053489;28;20170;-70
2023/02/11 07:42:34;;;;;;;30.13;20.50;;;4.00;99.90;;;;;;5054308;28;20409;-70
2023/02/11 07:44:59;;;;;;;33.37;24.80;;;4.00;99.90;;;;;;5054647;28;20441;-70
2023/02/11 07:47:25;;;;;;;27.40;20.23;;;4.10;99.90;;;;;;5053017;28;20442;-70
2023/02/11 07:49:51;;;;;;;32.60;23.70;;;4.30;99.90;;;;;;5053254;28;20213;-70
2023/02/11 07:52:16;;;;;;;30.43;22.67;;;4.40;99.90;;;;;;5054278;28;20163;-70
2023/02/11 07:54:42;;;;;;;28.87;21.27;;;4.50;99.90;;;;;;5054097;28;20171;-70
2023/02/11 07:57:07;;;;;;;28.13;22.50;;;4.60;99.90;;;;;;5068546;28;20209;-70
2023/02/11 07:59:33;;;;;;;25.70;19.73;;;4.60;99.90;;;;;;5073755;28;20247;-70
2023/02/11 08:01:58;;;;;;;26.50;20.03;;;4.70;99.90;;;;;;5073588;28;20656;-70
2023/02/11 08:04:24;;;;;;;25.30;20.10;;;4.70;99.90;;;;;;5072501;28;20162;-70
2023/02/11 08:06:51;;;;;;;32.23;20.47;;;4.70;99.90;;;;;;5072092;28;20216;-70
2023/02/11 08:09:17;;;;;;;25.67;20.23;;;4.50;99.90;;;;;;5072106;28;20525;-70
2023/02/11 08:11:43;;;;;;;26.13;20.40;;;4.60;99.90;;;;;;5073517;28;20400;-70
2023/02/11 08:14:10;;;;;;;26.67;20.70;;;4.80;99.90;;;;;;5073843;28;20815;-69
2023/02/11 08:16:37;;;;;;;26.13;21.53;;;4.80;99.90;;;;;;5072221;28;20432;-71
2023/02/11 08:19:06;;;;;;;25.30;21.43;;;5.00;99.90;;;;;;5072099;28;20440;-70
2023/02/11 08:21:31;;;;;;;24.70;19.77;;;5.10;99.90;;;;;;5073609;28;20407;-71
2023/02/11 08:23:57;;;;;;;28.37;20.10;;;5.40;99.90;;;;;;5060064;28;20825;-71
2023/02/11 08:26:28;;;;;;;24.70;19.13;;;5.60;99.90;;;;;;5053175;28;20573;-69
2023/02/11 08:28:55;;;;;;;23.73;20.10;;;5.80;99.90;;;;;;5053620;28;20167;-70
2023/02/11 08:31:24;;;;;;;26.73;19.63;;;5.90;99.90;;;;;;5053861;28;20401;-70
2023/02/11 08:33:50;;;;;;;99.37;61.33;;;5.40;99.90;;;;;;5053618;28;20393;-70
2023/02/11 08:36:18;;;;;;;35.17;23.87;;;5.30;99.90;;;;;;5052042;28;20478;-70
2023/02/11 08:38:44;;;;;;;27.87;22.10;;;5.50;99.90;;;;;;5053289;28;20171;-71
2023/02/11 08:41:10;;;;;;;24.27;20.03;;;5.30;99.90;;;;;;5053349;28;20405;-70
2023/02/11 08:43:40;;;;;;;24.30;20.00;;;5.10;99.90;;;;;;5053296;28;20405;-70
2023/02/11 08:46:06;;;;;;;24.10;20.57;;;4.90;99.90;;;;;;5053716;28;20849;-70
2023/02/11 08:48:32;;;;;;;29.40;23.50;;;5.00;99.90;;;;;;5052113;28;20731;-71
2023/02/11 08:50:57;;;;;;;29.50;22.10;;;5.30;99.90;;;;;;5053384;28;20405;-70
2023/02/11 08:53:25;;;;;;;25.67;21.23;;;5.50;99.90;;;;;;5052019;28;20183;-69
2023/02/11 08:55:53;;;;;;;28.27;22.10;;;5.60;99.90;;;;;;5052018;28;20170;-70
2023/02/11 08:58:20;;;;;;;24.50;20.97;;;5.80;99.90;;;;;;5052984;28;20436;-71
2023/02/11 09:00:46;;;;;;;31.30;24.17;;;5.90;99.90;;;;;;5052990;28;20827;-70
2023/02/11 09:03:13;;;;;;;25.67;20.50;;;5.90;99.90;;;;;;5052170;28;20405;-70
2023/02/11 09:05:44;;;;;;;23.67;20.23;;;6.00;99.90;;;;;;5051757;28;20484;-70
2023/02/11 09:08:10;;;;;;;25.13;20.17;;;6.20;99.90;;;;;;5051515;28;20436;-70
2023/02/11 09:10:36;;;;;;;21.57;17.67;;;6.20;99.90;;;;;;5067560;28;20958;-71
2023/02/11 09:13:02;;;;;;;22.93;18.03;;;6.00;99.90;;;;;;5071633;28;20400;-71
2023/02/11 09:15:28;;;;;;;24.90;19.10;;;6.10;99.90;;;;;;5072785;28;20415;-70
2023/02/11 09:17:53;;;;;;;23.10;19.00;;;5.70;99.90;;;;;;5072505;28;20327;-70
2023/02/11 09:20:20;;;;;;;20.17;18.07;;;5.90;99.90;;;;;;5072472;28;20173;-70
2023/02/11 09:22:45;;;;;;;22.10;18.17;;;6.00;99.90;;;;;;5069683;28;20177;-70
2023/02/11 09:25:11;;;;;;;20.30;17.57;;;5.80;99.90;;;;;;5052459;28;20444;-70
2023/02/11 09:27:36;;;;;;;20.20;16.97;;;5.70;99.90;;;;;;5052984;28;20707;-71
2023/02/11 09:30:03;;;;;;;18.33;16.33;;;5.90;99.90;;;;;;5053449;28;20532;-71
2023/02/11 09:32:28;;;;;;;21.47;18.00;;;6.20;99.90;;;;;;5053356;28;20689;-71
2023/02/11 09:34:54;;;;;;;19.67;17.53;;;6.10;99.90;;;;;;5052632;28;20493;-70
2023/02/11 09:37:19;;;;;;;17.90;16.00;;;6.00;99.90;;;;;;5051672;28;20188;-70
2023/02/11 09:39:45;;;;;;;23.00;18.10;;;6.10;99.90;;;;;;5052265;28;20169;-71
2023/02/11 09:42:38;;;;;;;19.00;15.60;;;6.10;99.90;;;;;;5051355;28;20623;-70
2023/02/11 09:45:09;;;;;;;18.87;14.97;;;6.20;99.90;;;;;;5052798;28;20550;-70
2023/02/11 09:47:44;;;;;;;18.67;15.13;;;6.20;99.90;;;;;;5052608;28;20414;-70
2023/02/11 09:50:18;;;;;;;21.37;16.00;;;6.40;99.90;;;;;;5051225;28;20488;-71
2023/02/11 09:52:53;;;;;;;18.13;14.37;;;6.50;99.90;;;;;;5052880;28;20387;-70
2023/02/11 09:55:26;;;;;;;16.00;13.50;;;6.60;99.90;;;;;;5056966;28;20947;-70
2023/02/11 09:57:52;;;;;;;15.60;14.00;;;6.60;99.90;;;;;;5050543;28;20453;-70
2023/02/11 10:00:44;;;;;;;16.97;14.37;;;6.70;99.90;;;;;;5052355;28;20468;-68
2023/02/11 10:03:20;;;;;;;12.83;11.40;;;6.90;99.90;;;;;;5036339;28;20421;-68
2023/02/11 10:06:19;;;;;;;14.47;12.97;;;7.30;99.90;;;;;;5053941;28;21038;-70
2023/02/11 10:09:03;;;;;;;13.20;11.80;;;7.20;99.90;;;;;;5056914;28;20398;-70
2023/02/11 10:11:44;;;;;;;14.83;11.70;;;7.30;99.90;;;;;;5056506;28;20390;-70
2023/02/11 10:14:25;;;;;;;15.20;12.17;;;7.60;99.90;;;;;;5056714;28;20935;-70
2023/02/11 10:16:56;;;;;;;13.77;11.77;;;7.40;99.90;;;;;;5055281;28;20434;-70
2023/02/11 10:19:54;;;;;;;16.37;12.83;;;7.50;99.90;;;;;;5056100;28;20522;-70
2023/02/11 10:22:40;;;;;;;13.83;12.23;;;7.70;99.90;;;;;;5056930;28;20447;-70
2023/02/11 10:25:21;;;;;;;16.90;12.97;;;8.00;99.90;;;;;;5055619;28;20971;-70
2023/02/11 10:27:47;;;;;;;20.37;13.67;;;7.80;99.90;;;;;;5054769;28;20442;-70
2023/02/11 10:30:25;;;;;;;16.33;13.13;;;7.90;99.90;;;;;;5055790;28;20444;-70
2023/02/11 10:32:59;;;;;;;17.47;13.23;;;8.00;99.90;;;;;;5056212;28;20432;-70
2023/02/11 10:35:26;;;;;;;18.07;14.73;;;8.20;99.90;;;;;;5055817;28;20880;-70
2023/02/11 10:37:53;;;;;;;18.70;16.70;;;8.20;99.90;;;;;;5055336;28;20479;-70
2023/02/11 10:40:27;;;;;;;31.60;22.60;;;8.00;99.90;;;;;;5055409;28;20496;-70
2023/02/11 10:42:57;;;;;;;23.57;20.13;;;7.80;99.90;;;;;;5055475;28;20414;-70
2023/02/11 10:45:46;;;;;;;26.07;19.20;;;7.80;99.90;;;;;;5054254;28;20482;-69
2023/02/11 10:48:38;;;;;;;33.07;26.57;;;8.10;99.90;;;;;;5055573;28;20538;-70
2023/02/11 10:51:17;;;;;;;36.07;27.40;;;8.30;99.90;;;;;;5055387;28;20892;-70
2023/02/11 10:53:44;;;;;;;29.83;26.63;;;7.70;99.90;;;;;;5053460;28;20462;-69
2023/02/11 10:56:28;;;;;;;34.73;24.77;;;7.60;99.90;;;;;;5054919;28;20415;-70
2023/02/11 10:59:19;;;;;;;28.43;23.67;;;7.80;99.90;;;;;;5055993;28;20453;-70
2023/02/11 11:01:59;;;;;;;29.70;23.40;;;7.80;99.90;;;;;;5049985;28;20419;-70
2023/02/11 11:04:46;;;;;;;32.53;23.90;;;7.90;99.90;;;;;;5056038;28;20386;-71
2023/02/11 11:07:38;;;;;;;28.00;20.50;;;8.00;99.90;;;;;;5054213;28;20431;-70
2023/02/11 11:10:07;;;;;;;25.60;17.63;;;8.10;99.90;;;;;;5052501;28;20410;-70
2023/02/11 11:12:44;;;;;;;19.47;17.47;;;8.20;99.90;;;;;;5055148;28;20400;-71
2023/02/11 11:15:10;;;;;;;22.10;19.40;;;8.30;99.90;;;;;;5055501;28;20901;-71
2023/02/11 11:17:36;;;;;;;20.37;17.00;;;8.60;99.90;;;;;;5057977;28;20425;-69
2023/02/11 11:20:28;;;;;;;18.40;15.40;;;9.60;99.90;;;;;;5074812;28;20177;-71
2023/02/11 11:23:19;;;;;;;21.57;17.03;;;11.20;99.20;;;;;;5074962;28;20380;-70
2023/02/11 11:26:08;;;;;;;18.03;16.13;;;12.60;97.30;;;;;;5054825;28;20444;-71
2023/02/11 11:28:47;;;;;;;22.47;16.60;;;14.50;93.00;;;;;;5054708;28;20779;-70
2023/02/11 11:31:25;;;;;;;16.70;14.83;;;16.10;87.50;;;;;;5054617;28;20383;-69
2023/02/11 11:33:54;;;;;;;16.93;15.13;;;15.40;85.10;;;;;;5054507;28;20778;-70
2023/02/11 11:36:23;;;;;;;15.40;13.93;;;14.50;86.00;;;;;;5054234;28;20427;-70
2023/02/11 11:38:55;;;;;;;14.33;12.80;;;14.90;86.50;;;;;;5053885;28;20404;-70
2023/02/11 11:41:32;;;;;;;13.50;11.90;;;15.20;85.10;;;;;;5054014;28;20383;-70
2023/02/11 11:44:17;;;;;;;15.87;12.80;;;16.20;81.40;;;;;;5054579;28;20406;-70
2023/02/11 11:46:45;;;;;;;14.10;11.93;;;17.00;81.20;;;;;;5054713;28;20540;-70
2023/02/11 11:49:22;;;;;;;12.20;10.90;;;18.70;74.50;;;;;;5054074;28;20444;-69
2023/02/11 11:52:17;;;;;;;22.10;14.37;;;19.30;69.60;;;;;;5073130;28;20396;-69
2023/02/11 11:54:50;;;;;;;16.67;13.10;;;19.90;67.80;;;;;;5065349;28;20458;-69
2023/02/11 11:57:21;;;;;;;12.63;11.33;;;20.90;66.20;;;;;;5072994;28;20464;-69
2023/02/11 11:59:47;;;;;;;13.90;12.40;;;20.50;61.30;;;;;;5074259;28;20405;-69
2023/02/11 12:02:21;;;;;;;12.43;10.87;;;20.40;62.20;;;;;;5073883;28;20397;-70
2023/02/11 12:05:01;;;;;;;12.17;10.97;;;19.20;62.70;;;;;;5059440;28;20186;-70
2023/02/11 12:07:44;;;;;;;11.80;10.60;;;20.50;60.60;;;;;;5053894;28;20421;-70
2023/02/11 12:11:02;;;;;;;12.37;11.07;;;21.20;58.80;;;;;;5054106;28;20396;-70
2023/02/11 12:14:01;;;;;;;13.10;11.30;;;19.90;59.40;;;;;;5042660;28;20416;-70
2023/02/11 12:16:42;;;;;;;10.70;9.70;;;18.40;62.10;;;;;;5052435;28;20468;-70
2023/02/11 12:19:25;;;;;;;10.80;9.80;;;16.80;64.50;;;;;;5053626;28;20389;-70
2023/02/11 12:22:03;;;;;;;13.33;10.90;;;16.40;68.00;;;;;;5054223;28;20542;-70
2023/02/11 12:24:39;;;;;;;11.33;10.20;;;17.70;65.80;;;;;;5052809;28;20425;-70
2023/02/11 12:27:22;;;;;;;10.80;9.53;;;18.80;63.90;;;;;;5053298;28;20456;-69
2023/02/11 12:29:51;;;;;;;12.53;11.33;;;19.10;63.10;;;;;;5053755;28;20821;-68
2023/02/11 12:32:42;;;;;;;11.83;10.57;;;17.60;65.70;;;;;;5052610;28;20421;-71
2023/02/11 12:35:43;;;;;;;10.87;9.87;;;16.30;69.00;;;;;;5053778;28;20755;-70
2023/02/11 12:38:27;;;;;;;13.07;10.77;;;15.60;70.00;;;;;;5053378;28;20416;-71
2023/02/11 12:41:11;;;;;;;12.37;11.00;;;15.10;72.60;;;;;;5051821;28;20842;-71
2023/02/11 12:43:39;;;;;;;14.20;10.30;;;14.70;73.90;;;;;;5053314;28;20395;-71
2023/02/11 12:46:08;;;;;;;11.33;10.17;;;14.00;76.20;;;;;;5053200;28;20826;-71
2023/02/11 12:48:49;;;;;;;9.87;8.87;;;13.50;78.50;;;;;;5053246;28;20478;-71
2023/02/11 12:51:39;;;;;;;8.93;8.10;;;12.80;81.00;;;;;;5050812;28;20420;-70
2023/02/11 12:54:07;;;;;;;11.87;8.93;;;13.00;82.40;;;;;;5053300;28;20416;-71
2023/02/11 12:56:41;;;;;;;12.93;9.60;;;13.30;82.20;;;;;;5052848;28;20445;-71
2023/02/11 12:59:16;;;;;;;12.00;9.00;;;13.40;82.30;;;;;;5053125;28;20536;-70